sensor_id;sensor_type;location;lat;lon;timestamp;temperature;humidity
82039;DHT22;71610;42.628;23.378;2024-01-27T00:00:09;24.00;24.30
82039;DHT22;71610;42.628;23.378;2024-01-27T00:02:35;24.00;24.30
82039;DHT22;71610;42.628;23.378;2024-01-27T00:05:02;24.00;24.30
82039;DHT22;71610;42.628;23.378;2024-01-27T00:07:28;24.00;24.20
82039;DHT22;71610;42.628;23.378;2024-01-27T00:09:54;24.00;24.20
82039;DHT22;71610;42.628;23.378;2024-01-27T00:12:21;24.00;24.20
82039;DHT22;71610;42.628;23.378;2024-01-27T00:14:46;24.00;24.20
82039;DHT22;71610;42.628;23.378;2024-01-27T00:17:12;24.00;24.20
82039;DHT22;71610;42.628;23.378;2024-01-27T00:19:38;24.00;24.30
82039;DHT22;71610;42.628;23.378;2024-01-27T00:22:04;24.00;24.20
82039;DHT22;71610;42.628;23.378;2024-01-27T00:24:30;24.00;24.20
82039;DHT22;71610;42.628;23.378;2024-01-27T00:26:55;24.00;24.20
82039;DHT22;71610;42.628;23.378;2024-01-27T00:29:21;24.00;24.20
82039;DHT22;71610;42.628;23.378;2024-01-27T00:31:47;24.00;24.20
82039;DHT22;71610;42.628;23.378;2024-01-27T00:34:14;24.00;24.20
82039;DHT22;71610;42.628;23.378;2024-01-27T00:36:40;24.00;24.20
82039;DHT22;71610;42.628;23.378;2024-01-27T00:39:08;24.00;24.20
82039;DHT22;71610;42.628;23.378;2024-01-27T00:41:34;24.00;24.20
82039;DHT22;71610;42.628;23.378;2024-01-27T00:43:59;24.00;24.20
82039;DHT22;71610;42.628;23.378;2024-01-27T00:46:25;24.00;25.10
82039;DHT22;71610;42.628;23.378;2024-01-27T00:48:51;24.00;24.20
82039;DHT22;71610;42.628;23.378;2024-01-27T00:51:16;24.00;24.20
82039;DHT22;71610;42.628;23.378;2024-01-27T00:53:42;24.00;24.20
82039;DHT22;71610;42.628;23.378;2024-01-27T00:56:08;24.00;24.20
82039;DHT22;71610;42.628;23.378;2024-01-27T00:58:34;24.00;24.30
82039;DHT22;71610;42.628;23.378;2024-01-27T01:01:00;24.00;24.20
82039;DHT22;71610;42.628;23.378;2024-01-27T01:03:26;24.00;24.20
82039;DHT22;71610;42.628;23.378;2024-01-27T01:05:52;24.00;24.20
82039;DHT22;71610;42.628;23.378;2024-01-27T01:08:18;24.00;24.20
82039;DHT22;71610;42.628;23.378;2024-01-27T01:10:44;24.00;24.20
82039;DHT22;71610;42.628;23.378;2024-01-27T01:13:10;24.00;24.20
82039;DHT22;71610;42.628;23.378;2024-01-27T01:15:36;24.00;24.20
82039;DHT22;71610;42.628;23.378;2024-01-27T01:18:01;24.00;24.20
82039;DHT22;71610;42.628;23.378;2024-01-27T01:20:27;24.00;24.20
82039;DHT22;71610;42.628;23.378;2024-01-27T01:22:53;24.00;24.20
82039;DHT22;71610;42.628;23.378;2024-01-27T01:25:19;24.00;24.20
82039;DHT22;71610;42.628;23.378;2024-01-27T01:27:45;24.00;24.30
82039;DHT22;71610;42.628;23.378;2024-01-27T01:30:12;24.00;24.20
82039;DHT22;71610;42.628;23.378;2024-01-27T01:32:37;24.00;24.20
82039;DHT22;71610;42.628;23.378;2024-01-27T01:35:03;24.00;24.20
82039;DHT22;71610;42.628;23.378;2024-01-27T01:37:29;24.00;24.20
82039;DHT22;71610;42.628;23.378;2024-01-27T01:39:55;24.00;24.20
82039;DHT22;71610;42.628;23.378;2024-01-27T01:42:21;24.00;24.20
82039;DHT22;71610;42.628;23.378;2024-01-27T01:44:51;24.00;24.20
82039;DHT22;71610;42.628;23.378;2024-01-27T01:47:17;24.00;24.20
82039;DHT22;71610;42.628;23.378;2024-01-27T01:49:43;24.00;24.20
82039;DHT22;71610;42.628;23.378;2024-01-27T01:52:10;24.00;24.20
82039;DHT22;71610;42.628;23.378;2024-01-27T01:54:36;24.10;24.30
82039;DHT22;71610;42.628;23.378;2024-01-27T01:57:03;24.00;24.20
82039;DHT22;71610;42.628;23.378;2024-01-27T01:59:29;24.00;24.20
82039;DHT22;71610;42.628;23.378;2024-01-27T02:01:55;24.10;24.20
82039;DHT22;71610;42.628;23.378;2024-01-27T02:04:20;24.00;24.30
82039;DHT22;71610;42.628;23.378;2024-01-27T02:06:46;24.00;24.20
82039;DHT22;71610;42.628;23.378;2024-01-27T02:09:12;24.00;24.20
82039;DHT22;71610;42.628;23.378;2024-01-27T02:11:38;24.00;24.20
82039;DHT22;71610;42.628;23.378;2024-01-27T02:14:04;24.10;24.30
82039;DHT22;71610;42.628;23.378;2024-01-27T02:16:30;24.00;24.20
82039;DHT22;71610;42.628;23.378;2024-01-27T02:18:56;24.00;24.30
82039;DHT22;71610;42.628;23.378;2024-01-27T02:21:21;24.10;24.30
82039;DHT22;71610;42.628;23.378;2024-01-27T02:23:47;24.00;24.30
82039;DHT22;71610;42.628;23.378;2024-01-27T02:26:13;24.00;24.30
82039;DHT22;71610;42.628;23.378;2024-01-27T02:28:38;24.00;24.30
82039;DHT22;71610;42.628;23.378;2024-01-27T02:31:04;24.00;24.30
82039;DHT22;71610;42.628;23.378;2024-01-27T02:33:30;24.00;24.30
82039;DHT22;71610;42.628;23.378;2024-01-27T02:35:56;24.00;24.30
82039;DHT22;71610;42.628;23.378;2024-01-27T02:38:22;24.00;24.30
82039;DHT22;71610;42.628;23.378;2024-01-27T02:40:47;24.10;24.30
82039;DHT22;71610;42.628;23.378;2024-01-27T02:43:13;24.10;24.30
82039;DHT22;71610;42.628;23.378;2024-01-27T02:45:39;24.00;24.30
82039;DHT22;71610;42.628;23.378;2024-01-27T02:48:05;24.00;24.30
82039;DHT22;71610;42.628;23.378;2024-01-27T02:50:30;24.10;24.30
82039;DHT22;71610;42.628;23.378;2024-01-27T02:52:56;24.00;24.30
82039;DHT22;71610;42.628;23.378;2024-01-27T02:55:22;24.10;24.30
82039;DHT22;71610;42.628;23.378;2024-01-27T02:57:47;24.10;25.10
82039;DHT22;71610;42.628;23.378;2024-01-27T03:00:13;24.00;24.20
82039;DHT22;71610;42.628;23.378;2024-01-27T03:02:39;24.00;24.20
82039;DHT22;71610;42.628;23.378;2024-01-27T03:05:05;24.00;24.30
82039;DHT22;71610;42.628;23.378;2024-01-27T03:07:31;24.10;24.30
82039;DHT22;71610;42.628;23.378;2024-01-27T03:09:57;24.00;24.30
82039;DHT22;71610;42.628;23.378;2024-01-27T03:12:22;24.10;24.30
82039;DHT22;71610;42.628;23.378;2024-01-27T03:14:48;24.00;24.30
82039;DHT22;71610;42.628;23.378;2024-01-27T03:17:16;24.10;24.30
82039;DHT22;71610;42.628;23.378;2024-01-27T03:19:42;24.00;24.30
82039;DHT22;71610;42.628;23.378;2024-01-27T03:22:07;24.00;24.30
82039;DHT22;71610;42.628;23.378;2024-01-27T03:24:33;24.00;24.30
82039;DHT22;71610;42.628;23.378;2024-01-27T03:26:59;24.00;24.30
82039;DHT22;71610;42.628;23.378;2024-01-27T03:29:24;24.00;24.30
82039;DHT22;71610;42.628;23.378;2024-01-27T03:31:50;24.00;24.30
82039;DHT22;71610;42.628;23.378;2024-01-27T03:34:16;24.00;24.30
82039;DHT22;71610;42.628;23.378;2024-01-27T03:36:43;24.10;24.40
82039;DHT22;71610;42.628;23.378;2024-01-27T03:39:09;24.00;24.40
82039;DHT22;71610;42.628;23.378;2024-01-27T03:41:34;24.00;24.40
82039;DHT22;71610;42.628;23.378;2024-01-27T03:44:00;24.00;24.40
82039;DHT22;71610;42.628;23.378;2024-01-27T03:46:26;24.10;24.40
82039;DHT22;71610;42.628;23.378;2024-01-27T03:48:52;24.10;24.40
82039;DHT22;71610;42.628;23.378;2024-01-27T03:51:18;24.00;24.30
82039;DHT22;71610;42.628;23.378;2024-01-27T03:53:43;24.10;24.40
82039;DHT22;71610;42.628;23.378;2024-01-27T03:56:14;24.00;24.40
82039;DHT22;71610;42.628;23.378;2024-01-27T03:58:40;24.00;24.40
82039;DHT22;71610;42.628;23.378;2024-01-27T04:01:05;24.00;24.40
82039;DHT22;71610;42.628;23.378;2024-01-27T04:03:31;24.00;24.40
82039;DHT22;71610;42.628;23.378;2024-01-27T04:05:57;24.00;24.40
82039;DHT22;71610;42.628;23.378;2024-01-27T04:08:23;24.10;24.40
82039;DHT22;71610;42.628;23.378;2024-01-27T04:10:49;24.00;24.40
82039;DHT22;71610;42.628;23.378;2024-01-27T04:13:15;24.10;24.40
82039;DHT22;71610;42.628;23.378;2024-01-27T04:15:41;24.00;24.40
82039;DHT22;71610;42.628;23.378;2024-01-27T04:18:07;24.10;24.40
82039;DHT22;71610;42.628;23.378;2024-01-27T04:20:34;24.00;24.40
82039;DHT22;71610;42.628;23.378;2024-01-27T04:23:00;24.00;24.40
82039;DHT22;71610;42.628;23.378;2024-01-27T04:25:26;24.10;24.40
82039;DHT22;71610;42.628;23.378;2024-01-27T04:27:52;24.00;24.40
82039;DHT22;71610;42.628;23.378;2024-01-27T04:30:18;24.00;24.40
82039;DHT22;71610;42.628;23.378;2024-01-27T04:32:44;24.00;24.40
82039;DHT22;71610;42.628;23.378;2024-01-27T04:35:10;24.00;24.40
82039;DHT22;71610;42.628;23.378;2024-01-27T04:37:36;24.00;24.40
82039;DHT22;71610;42.628;23.378;2024-01-27T04:40:04;24.00;24.40
82039;DHT22;71610;42.628;23.378;2024-01-27T04:42:35;24.10;24.50
82039;DHT22;71610;42.628;23.378;2024-01-27T04:45:01;24.10;24.50
82039;DHT22;71610;42.628;23.378;2024-01-27T04:47:27;24.10;24.50
82039;DHT22;71610;42.628;23.378;2024-01-27T04:49:53;24.10;24.50
82039;DHT22;71610;42.628;23.378;2024-01-27T04:52:19;24.10;24.50
82039;DHT22;71610;42.628;23.378;2024-01-27T04:54:45;24.10;24.60
82039;DHT22;71610;42.628;23.378;2024-01-27T04:57:11;24.10;24.60
82039;DHT22;71610;42.628;23.378;2024-01-27T04:59:36;24.10;24.50
82039;DHT22;71610;42.628;23.378;2024-01-27T05:02:02;24.10;24.60
82039;DHT22;71610;42.628;23.378;2024-01-27T05:04:28;24.10;24.60
82039;DHT22;71610;42.628;23.378;2024-01-27T05:06:53;24.10;24.60
82039;DHT22;71610;42.628;23.378;2024-01-27T05:09:19;24.10;24.60
82039;DHT22;71610;42.628;23.378;2024-01-27T05:11:45;24.10;25.40
82039;DHT22;71610;42.628;23.378;2024-01-27T05:14:11;24.10;24.60
82039;DHT22;71610;42.628;23.378;2024-01-27T05:16:37;24.10;24.60
82039;DHT22;71610;42.628;23.378;2024-01-27T05:19:03;24.10;24.60
82039;DHT22;71610;42.628;23.378;2024-01-27T05:21:28;24.10;24.60
82039;DHT22;71610;42.628;23.378;2024-01-27T05:23:54;24.10;24.70
82039;DHT22;71610;42.628;23.378;2024-01-27T05:26:21;24.10;24.70
82039;DHT22;71610;42.628;23.378;2024-01-27T05:28:47;24.10;24.70
82039;DHT22;71610;42.628;23.378;2024-01-27T05:31:13;24.10;24.60
82039;DHT22;71610;42.628;23.378;2024-01-27T05:33:39;24.10;24.60
82039;DHT22;71610;42.628;23.378;2024-01-27T05:36:07;24.10;24.70
82039;DHT22;71610;42.628;23.378;2024-01-27T05:38:33;24.10;24.70
82039;DHT22;71610;42.628;23.378;2024-01-27T05:41:02;24.10;24.70
82039;DHT22;71610;42.628;23.378;2024-01-27T05:43:28;24.10;24.70
82039;DHT22;71610;42.628;23.378;2024-01-27T05:45:54;24.10;24.70
82039;DHT22;71610;42.628;23.378;2024-01-27T05:48:20;24.10;24.70
82039;DHT22;71610;42.628;23.378;2024-01-27T05:50:55;24.10;24.70
82039;DHT22;71610;42.628;23.378;2024-01-27T05:53:22;24.10;24.70
82039;DHT22;71610;42.628;23.378;2024-01-27T05:55:47;24.10;24.70
82039;DHT22;71610;42.628;23.378;2024-01-27T05:58:13;24.10;24.70
82039;DHT22;71610;42.628;23.378;2024-01-27T06:00:39;24.10;24.70
82039;DHT22;71610;42.628;23.378;2024-01-27T06:03:05;24.10;24.70
82039;DHT22;71610;42.628;23.378;2024-01-27T06:05:30;24.10;24.70
82039;DHT22;71610;42.628;23.378;2024-01-27T06:07:56;24.10;24.70
82039;DHT22;71610;42.628;23.378;2024-01-27T06:10:22;24.10;24.80
82039;DHT22;71610;42.628;23.378;2024-01-27T06:12:49;24.10;24.70
82039;DHT22;71610;42.628;23.378;2024-01-27T06:15:16;24.10;24.80
82039;DHT22;71610;42.628;23.378;2024-01-27T06:17:42;24.10;24.80
82039;DHT22;71610;42.628;23.378;2024-01-27T06:20:08;24.10;24.80
82039;DHT22;71610;42.628;23.378;2024-01-27T06:22:34;24.10;24.80
82039;DHT22;71610;42.628;23.378;2024-01-27T06:24:59;24.10;24.80
82039;DHT22;71610;42.628;23.378;2024-01-27T06:27:25;24.10;24.80
82039;DHT22;71610;42.628;23.378;2024-01-27T06:29:51;24.10;24.80
82039;DHT22;71610;42.628;23.378;2024-01-27T06:32:16;24.10;24.80
82039;DHT22;71610;42.628;23.378;2024-01-27T06:34:42;24.10;24.80
82039;DHT22;71610;42.628;23.378;2024-01-27T06:37:08;24.10;24.80
82039;DHT22;71610;42.628;23.378;2024-01-27T06:39:33;24.10;24.80
82039;DHT22;71610;42.628;23.378;2024-01-27T06:41:59;24.10;24.90
82039;DHT22;71610;42.628;23.378;2024-01-27T06:44:25;24.10;24.90
82039;DHT22;71610;42.628;23.378;2024-01-27T06:46:50;24.10;24.90
82039;DHT22;71610;42.628;23.378;2024-01-27T06:49:16;24.10;24.90
82039;DHT22;71610;42.628;23.378;2024-01-27T06:51:43;24.10;24.90
82039;DHT22;71610;42.628;23.378;2024-01-27T06:54:09;24.10;24.90
82039;DHT22;71610;42.628;23.378;2024-01-27T06:56:35;24.10;24.90
82039;DHT22;71610;42.628;23.378;2024-01-27T06:59:00;24.10;24.90
82039;DHT22;71610;42.628;23.378;2024-01-27T07:01:26;24.10;24.90
82039;DHT22;71610;42.628;23.378;2024-01-27T07:03:52;24.10;24.90
82039;DHT22;71610;42.628;23.378;2024-01-27T07:06:18;24.10;24.90
82039;DHT22;71610;42.628;23.378;2024-01-27T07:08:43;24.10;24.90
82039;DHT22;71610;42.628;23.378;2024-01-27T07:11:09;24.10;24.90
82039;DHT22;71610;42.628;23.378;2024-01-27T07:13:35;24.10;24.90
82039;DHT22;71610;42.628;23.378;2024-01-27T07:16:01;24.10;24.90
82039;DHT22;71610;42.628;23.378;2024-01-27T07:18:26;24.10;25.80
82039;DHT22;71610;42.628;23.378;2024-01-27T07:20:52;24.10;24.90
82039;DHT22;71610;42.628;23.378;2024-01-27T07:23:20;24.10;24.90
82039;DHT22;71610;42.628;23.378;2024-01-27T07:25:46;24.10;24.90
82039;DHT22;71610;42.628;23.378;2024-01-27T07:28:12;24.10;24.90
82039;DHT22;71610;42.628;23.378;2024-01-27T07:30:37;24.10;24.90
82039;DHT22;71610;42.628;23.378;2024-01-27T07:33:04;24.10;24.90
82039;DHT22;71610;42.628;23.378;2024-01-27T07:35:30;24.10;24.90
82039;DHT22;71610;42.628;23.378;2024-01-27T07:38:04;24.10;24.90
82039;DHT22;71610;42.628;23.378;2024-01-27T07:40:30;24.10;24.90
82039;DHT22;71610;42.628;23.378;2024-01-27T07:42:56;24.10;24.90
82039;DHT22;71610;42.628;23.378;2024-01-27T07:45:22;24.10;24.90
82039;DHT22;71610;42.628;23.378;2024-01-27T07:47:47;24.10;24.90
82039;DHT22;71610;42.628;23.378;2024-01-27T07:50:13;24.10;24.90
82039;DHT22;71610;42.628;23.378;2024-01-27T07:52:39;24.00;24.90
82039;DHT22;71610;42.628;23.378;2024-01-27T07:55:05;24.10;24.90
82039;DHT22;71610;42.628;23.378;2024-01-27T07:57:31;24.10;25.00
82039;DHT22;71610;42.628;23.378;2024-01-27T07:59:57;24.00;24.90
82039;DHT22;71610;42.628;23.378;2024-01-27T08:02:23;24.00;24.90
82039;DHT22;71610;42.628;23.378;2024-01-27T08:04:49;24.00;24.90
82039;DHT22;71610;42.628;23.378;2024-01-27T08:07:14;24.00;24.90
82039;DHT22;71610;42.628;23.378;2024-01-27T08:09:42;24.00;24.90
82039;DHT22;71610;42.628;23.378;2024-01-27T08:12:07;23.90;24.80
82039;DHT22;71610;42.628;23.378;2024-01-27T08:14:33;24.00;24.90
82039;DHT22;71610;42.628;23.378;2024-01-27T08:17:02;23.90;24.80
82039;DHT22;71610;42.628;23.378;2024-01-27T08:19:31;23.90;24.80
82039;DHT22;71610;42.628;23.378;2024-01-27T08:21:57;23.90;24.80
82039;DHT22;71610;42.628;23.378;2024-01-27T08:24:23;23.90;24.80
82039;DHT22;71610;42.628;23.378;2024-01-27T08:26:50;23.90;24.80
82039;DHT22;71610;42.628;23.378;2024-01-27T08:29:16;23.90;24.80
82039;DHT22;71610;42.628;23.378;2024-01-27T08:31:41;23.90;24.80
82039;DHT22;71610;42.628;23.378;2024-01-27T08:34:08;23.90;24.80
82039;DHT22;71610;42.628;23.378;2024-01-27T08:36:34;23.90;24.80
82039;DHT22;71610;42.628;23.378;2024-01-27T08:39:00;23.90;24.80
82039;DHT22;71610;42.628;23.378;2024-01-27T08:41:26;23.90;24.80
82039;DHT22;71610;42.628;23.378;2024-01-27T08:43:52;23.90;24.80
82039;DHT22;71610;42.628;23.378;2024-01-27T08:46:18;23.90;24.80
82039;DHT22;71610;42.628;23.378;2024-01-27T08:48:46;23.90;24.80
82039;DHT22;71610;42.628;23.378;2024-01-27T08:51:12;23.90;24.80
82039;DHT22;71610;42.628;23.378;2024-01-27T08:53:38;23.90;24.80
82039;DHT22;71610;42.628;23.378;2024-01-27T08:56:04;23.90;24.80
82039;DHT22;71610;42.628;23.378;2024-01-27T08:58:31;23.90;24.80
82039;DHT22;71610;42.628;23.378;2024-01-27T09:00:57;23.80;24.80
82039;DHT22;71610;42.628;23.378;2024-01-27T09:03:23;23.80;24.80
82039;DHT22;71610;42.628;23.378;2024-01-27T09:05:49;23.80;24.80
82039;DHT22;71610;42.628;23.378;2024-01-27T09:08:15;23.80;24.80
82039;DHT22;71610;42.628;23.378;2024-01-27T09:10:42;23.80;24.80
82039;DHT22;71610;42.628;23.378;2024-01-27T09:13:08;23.80;24.80
82039;DHT22;71610;42.628;23.378;2024-01-27T09:15:34;23.80;24.70
82039;DHT22;71610;42.628;23.378;2024-01-27T09:17:59;23.80;24.70
82039;DHT22;71610;42.628;23.378;2024-01-27T09:20:25;23.80;24.70
82039;DHT22;71610;42.628;23.378;2024-01-27T09:22:51;23.80;24.70
82039;DHT22;71610;42.628;23.378;2024-01-27T09:25:17;23.80;24.70
82039;DHT22;71610;42.628;23.378;2024-01-27T09:27:42;23.80;24.70
82039;DHT22;71610;42.628;23.378;2024-01-27T09:30:08;23.80;24.60
82039;DHT22;71610;42.628;23.378;2024-01-27T09:32:35;23.70;24.60
82039;DHT22;71610;42.628;23.378;2024-01-27T09:35:01;23.80;24.70
82039;DHT22;71610;42.628;23.378;2024-01-27T09:37:27;23.80;24.60
82039;DHT22;71610;42.628;23.378;2024-01-27T09:39:53;23.80;24.70
82039;DHT22;71610;42.628;23.378;2024-01-27T09:42:20;23.70;24.70
82039;DHT22;71610;42.628;23.378;2024-01-27T09:44:48;23.70;24.60
82039;DHT22;71610;42.628;23.378;2024-01-27T09:47:15;23.80;24.70
82039;DHT22;71610;42.628;23.378;2024-01-27T09:49:42;23.70;24.60
82039;DHT22;71610;42.628;23.378;2024-01-27T09:52:08;23.70;24.70
82039;DHT22;71610;42.628;23.378;2024-01-27T09:54:35;23.70;24.60
82039;DHT22;71610;42.628;23.378;2024-01-27T09:57:01;23.70;24.50
82039;DHT22;71610;42.628;23.378;2024-01-27T09:59:28;23.70;24.40
82039;DHT22;71610;42.628;23.378;2024-01-27T10:01:55;23.70;24.50
82039;DHT22;71610;42.628;23.378;2024-01-27T10:04:22;23.70;24.40
82039;DHT22;71610;42.628;23.378;2024-01-27T10:06:49;23.60;24.50
82039;DHT22;71610;42.628;23.378;2024-01-27T10:09:17;23.60;24.40
82039;DHT22;71610;42.628;23.378;2024-01-27T10:11:46;23.60;24.40
82039;DHT22;71610;42.628;23.378;2024-01-27T10:14:12;23.60;24.50
82039;DHT22;71610;42.628;23.378;2024-01-27T10:16:42;23.60;24.40
82039;DHT22;71610;42.628;23.378;2024-01-27T10:19:16;23.60;24.40
82039;DHT22;71610;42.628;23.378;2024-01-27T10:21:47;23.60;24.50
82039;DHT22;71610;42.628;23.378;2024-01-27T10:24:13;23.60;24.40
82039;DHT22;71610;42.628;23.378;2024-01-27T10:26:39;23.60;24.50
82039;DHT22;71610;42.628;23.378;2024-01-27T10:29:05;23.60;24.40
82039;DHT22;71610;42.628;23.378;2024-01-27T10:31:33;23.60;24.40
82039;DHT22;71610;42.628;23.378;2024-01-27T10:34:00;23.60;24.40
82039;DHT22;71610;42.628;23.378;2024-01-27T10:36:43;23.50;24.40
82039;DHT22;71610;42.628;23.378;2024-01-27T10:39:22;23.60;24.40
82039;DHT22;71610;42.628;23.378;2024-01-27T10:41:50;23.50;24.40
82039;DHT22;71610;42.628;23.378;2024-01-27T10:44:18;23.50;24.40
82039;DHT22;71610;42.628;23.378;2024-01-27T10:46:46;23.50;24.40
82039;DHT22;71610;42.628;23.378;2024-01-27T10:49:13;23.50;24.40
82039;DHT22;71610;42.628;23.378;2024-01-27T10:51:45;23.50;24.50
82039;DHT22;71610;42.628;23.378;2024-01-27T10:54:15;23.50;24.40
82039;DHT22;71610;42.628;23.378;2024-01-27T10:56:45;23.50;24.50
82039;DHT22;71610;42.628;23.378;2024-01-27T10:59:13;23.50;24.50
82039;DHT22;71610;42.628;23.378;2024-01-27T11:01:41;23.50;24.50
82039;DHT22;71610;42.628;23.378;2024-01-27T11:04:09;23.50;24.50
82039;DHT22;71610;42.628;23.378;2024-01-27T11:06:37;23.50;24.40
82039;DHT22;71610;42.628;23.378;2024-01-27T11:09:03;23.50;24.50
82039;DHT22;71610;42.628;23.378;2024-01-27T11:11:30;23.50;24.50
82039;DHT22;71610;42.628;23.378;2024-01-27T11:13:56;23.40;24.50
82039;DHT22;71610;42.628;23.378;2024-01-27T11:16:22;23.50;24.50
82039;DHT22;71610;42.628;23.378;2024-01-27T11:18:49;23.50;24.40
82039;DHT22;71610;42.628;23.378;2024-01-27T11:21:15;23.40;24.40
82039;DHT22;71610;42.628;23.378;2024-01-27T11:23:42;23.40;24.40
82039;DHT22;71610;42.628;23.378;2024-01-27T11:26:09;23.40;24.40
82039;DHT22;71610;42.628;23.378;2024-01-27T11:28:36;23.40;24.40
82039;DHT22;71610;42.628;23.378;2024-01-27T11:31:06;23.40;24.40
82039;DHT22;71610;42.628;23.378;2024-01-27T11:33:32;23.40;24.40
82039;DHT22;71610;42.628;23.378;2024-01-27T11:36:05;23.30;24.40
82039;DHT22;71610;42.628;23.378;2024-01-27T11:38:31;23.40;24.50
82039;DHT22;71610;42.628;23.378;2024-01-27T11:40:59;23.30;24.40
82039;DHT22;71610;42.628;23.378;2024-01-27T11:43:25;23.40;24.50
82039;DHT22;71610;42.628;23.378;2024-01-27T11:46:01;23.30;24.40
82039;DHT22;71610;42.628;23.378;2024-01-27T11:48:27;23.30;24.40
82039;DHT22;71610;42.628;23.378;2024-01-27T11:51:21;23.30;24.40
82039;DHT22;71610;42.628;23.378;2024-01-27T11:53:48;23.30;24.50
82039;DHT22;71610;42.628;23.378;2024-01-27T11:56:14;23.30;24.50
82039;DHT22;71610;42.628;23.378;2024-01-27T11:58:46;23.30;24.50
82039;DHT22;71610;42.628;23.378;2024-01-27T12:01:14;23.30;24.50
82039;DHT22;71610;42.628;23.378;2024-01-27T12:03:40;23.20;24.40
82039;DHT22;71610;42.628;23.378;2024-01-27T12:06:07;23.20;24.40
82039;DHT22;71610;42.628;23.378;2024-01-27T12:08:35;23.20;24.40
82039;DHT22;71610;42.628;23.378;2024-01-27T12:11:01;23.30;24.50
82039;DHT22;71610;42.628;23.378;2024-01-27T12:13:27;23.20;24.40
82039;DHT22;71610;42.628;23.378;2024-01-27T12:15:53;23.20;24.40
82039;DHT22;71610;42.628;23.378;2024-01-27T12:18:19;23.20;24.40
82039;DHT22;71610;42.628;23.378;2024-01-27T12:20:45;23.20;24.40
82039;DHT22;71610;42.628;23.378;2024-01-27T12:23:11;23.20;24.40
82039;DHT22;71610;42.628;23.378;2024-01-27T12:25:37;23.20;24.40
82039;DHT22;71610;42.628;23.378;2024-01-27T12:28:04;23.20;24.40
82039;DHT22;71610;42.628;23.378;2024-01-27T12:30:32;23.20;24.40
82039;DHT22;71610;42.628;23.378;2024-01-27T12:32:59;23.20;24.40
82039;DHT22;71610;42.628;23.378;2024-01-27T12:35:25;23.20;24.40
82039;DHT22;71610;42.628;23.378;2024-01-27T12:37:52;23.20;24.40
82039;DHT22;71610;42.628;23.378;2024-01-27T12:40:20;23.20;24.40
82039;DHT22;71610;42.628;23.378;2024-01-27T12:42:46;23.20;24.40
82039;DHT22;71610;42.628;23.378;2024-01-27T12:45:12;23.20;24.40
82039;DHT22;71610;42.628;23.378;2024-01-27T12:47:39;23.20;24.70
82039;DHT22;71610;42.628;23.378;2024-01-27T12:50:06;23.20;24.40
82039;DHT22;71610;42.628;23.378;2024-01-27T12:52:32;23.20;24.50
82039;DHT22;71610;42.628;23.378;2024-01-27T12:54:58;23.20;24.40
82039;DHT22;71610;42.628;23.378;2024-01-27T12:57:24;23.20;24.40
82039;DHT22;71610;42.628;23.378;2024-01-27T12:59:50;23.10;24.40
82039;DHT22;71610;42.628;23.378;2024-01-27T13:02:15;23.20;24.50
82039;DHT22;71610;42.628;23.378;2024-01-27T13:04:41;23.10;24.40
82039;DHT22;71610;42.628;23.378;2024-01-27T13:07:08;23.10;24.50
82039;DHT22;71610;42.628;23.378;2024-01-27T13:09:35;23.10;24.40
82039;DHT22;71610;42.628;23.378;2024-01-27T13:12:02;23.10;24.40
82039;DHT22;71610;42.628;23.378;2024-01-27T13:14:29;23.10;24.40
82039;DHT22;71610;42.628;23.378;2024-01-27T13:16:54;23.10;24.50
82039;DHT22;71610;42.628;23.378;2024-01-27T13:19:22;23.10;24.40
82039;DHT22;71610;42.628;23.378;2024-01-27T13:21:48;23.10;24.40
82039;DHT22;71610;42.628;23.378;2024-01-27T13:24:13;23.10;24.40
82039;DHT22;71610;42.628;23.378;2024-01-27T13:26:39;23.10;24.40
82039;DHT22;71610;42.628;23.378;2024-01-27T13:29:05;23.10;24.40
82039;DHT22;71610;42.628;23.378;2024-01-27T13:31:32;23.10;24.40
82039;DHT22;71610;42.628;23.378;2024-01-27T13:33:57;23.10;24.40
82039;DHT22;71610;42.628;23.378;2024-01-27T13:36:25;23.10;24.50
82039;DHT22;71610;42.628;23.378;2024-01-27T13:38:51;23.10;24.50
82039;DHT22;71610;42.628;23.378;2024-01-27T13:41:18;23.10;24.40
82039;DHT22;71610;42.628;23.378;2024-01-27T13:43:43;23.10;24.50
82039;DHT22;71610;42.628;23.378;2024-01-27T13:46:10;23.10;24.40
82039;DHT22;71610;42.628;23.378;2024-01-27T13:48:35;23.10;24.40
82039;DHT22;71610;42.628;23.378;2024-01-27T13:51:02;23.00;24.40
82039;DHT22;71610;42.628;23.378;2024-01-27T13:53:27;23.00;24.40
82039;DHT22;71610;42.628;23.378;2024-01-27T13:55:53;23.00;24.40
82039;DHT22;71610;42.628;23.378;2024-01-27T13:58:19;23.00;24.40
82039;DHT22;71610;42.628;23.378;2024-01-27T14:00:45;23.00;24.40
82039;DHT22;71610;42.628;23.378;2024-01-27T14:03:11;23.00;24.40
82039;DHT22;71610;42.628;23.378;2024-01-27T14:05:37;23.00;24.40
82039;DHT22;71610;42.628;23.378;2024-01-27T14:08:04;23.00;24.40
82039;DHT22;71610;42.628;23.378;2024-01-27T14:10:32;23.00;24.40
82039;DHT22;71610;42.628;23.378;2024-01-27T14:12:58;23.00;24.40
82039;DHT22;71610;42.628;23.378;2024-01-27T14:15:23;23.00;24.40
82039;DHT22;71610;42.628;23.378;2024-01-27T14:17:49;23.00;24.50
82039;DHT22;71610;42.628;23.378;2024-01-27T14:20:15;23.00;24.40
82039;DHT22;71610;42.628;23.378;2024-01-27T14:22:41;23.00;24.40
82039;DHT22;71610;42.628;23.378;2024-01-27T14:25:07;23.00;24.40
82039;DHT22;71610;42.628;23.378;2024-01-27T14:27:33;22.90;24.40
82039;DHT22;71610;42.628;23.378;2024-01-27T14:30:00;22.90;24.40
82039;DHT22;71610;42.628;23.378;2024-01-27T14:32:26;22.90;24.40
82039;DHT22;71610;42.628;23.378;2024-01-27T14:34:53;22.90;24.40
82039;DHT22;71610;42.628;23.378;2024-01-27T14:37:19;22.90;24.40
82039;DHT22;71610;42.628;23.378;2024-01-27T14:39:45;22.90;24.40
82039;DHT22;71610;42.628;23.378;2024-01-27T14:42:15;22.90;24.40
82039;DHT22;71610;42.628;23.378;2024-01-27T14:44:43;22.90;24.40
82039;DHT22;71610;42.628;23.378;2024-01-27T14:47:11;22.90;24.40
82039;DHT22;71610;42.628;23.378;2024-01-27T14:49:37;22.90;24.40
82039;DHT22;71610;42.628;23.378;2024-01-27T14:52:07;22.80;24.40
82039;DHT22;71610;42.628;23.378;2024-01-27T14:54:34;22.90;24.40
82039;DHT22;71610;42.628;23.378;2024-01-27T14:57:00;22.80;24.40
82039;DHT22;71610;42.628;23.378;2024-01-27T14:59:26;22.80;24.40
82039;DHT22;71610;42.628;23.378;2024-01-27T15:01:53;22.90;24.50
82039;DHT22;71610;42.628;23.378;2024-01-27T15:04:18;22.80;24.40
82039;DHT22;71610;42.628;23.378;2024-01-27T15:06:47;22.80;24.40
82039;DHT22;71610;42.628;23.378;2024-01-27T15:09:27;22.80;24.40